sensor_id;sensor_type;location;lat;lon;timestamp;temperature;humidity
14357;DHT22;7262;48.764;9.166;2022-12-16T02:00:51;-1.40;99.90
14357;DHT22;7262;48.764;9.166;2022-12-16T02:03:19;-1.40;99.90
14357;DHT22;7262;48.764;9.166;2022-12-16T02:05:46;-1.40;99.90
14357;DHT22;7262;48.764;9.166;2022-12-16T02:08:14;-1.50;99.90
14357;DHT22;7262;48.764;9.166;2022-12-16T02:10:45;-1.50;99.90
14357;DHT22;7262;48.764;9.166;2022-12-16T02:13:16;-1.50;99.90
14357;DHT22;7262;48.764;9.166;2022-12-16T02:15:48;-1.40;99.90
14357;DHT22;7262;48.764;9.166;2022-12-16T02:18:20;-1.40;99.90
14357;DHT22;7262;48.764;9.166;2022-12-16T02:20:57;-1.40;99.90
14357;DHT22;7262;48.764;9.166;2022-12-16T02:26:19;-1.40;99.90
14357;DHT22;7262;48.764;9.166;2022-12-16T02:29:05;-1.40;99.90
14357;DHT22;7262;48.764;9.166;2022-12-16T02:31:36;-1.50;99.90
14357;DHT22;7262;48.764;9.166;2022-12-16T02:34:08;-1.50;99.90
14357;DHT22;7262;48.764;9.166;2022-12-16T02:36:45;-1.50;99.90
14357;DHT22;7262;48.764;9.166;2022-12-16T02:39:15;-1.40;99.90
14357;DHT22;7262;48.764;9.166;2022-12-16T02:41:45;-1.40;99.90
14357;DHT22;7262;48.764;9.166;2022-12-16T02:44:14;-1.40;99.90
14357;DHT22;7262;48.764;9.166;2022-12-16T02:46:46;-1.40;99.90
14357;DHT22;7262;48.764;9.166;2022-12-16T02:52:02;-1.40;99.90
14357;DHT22;7262;48.764;9.166;2022-12-16T02:54:29;-1.50;99.90
14357;DHT22;7262;48.764;9.166;2022-12-16T02:56:57;-1.50;99.90
14357;DHT22;7262;48.764;9.166;2022-12-16T02:59:29;-1.40;99.90
14357;DHT22;7262;48.764;9.166;2022-12-16T03:02:04;-1.40;99.90
14357;DHT22;7262;48.764;9.166;2022-12-16T03:04:36;-1.50;99.90
14357;DHT22;7262;48.764;9.166;2022-12-16T03:07:04;-1.40;99.90
14357;DHT22;7262;48.764;9.166;2022-12-16T03:09:33;-1.40;99.90
14357;DHT22;7262;48.764;9.166;2022-12-16T03:12:01;-1.50;99.90
14357;DHT22;7262;48.764;9.166;2022-12-16T03:14:30;-1.40;99.90
14357;DHT22;7262;48.764;9.166;2022-12-16T03:16:58;-1.40;99.90
14357;DHT22;7262;48.764;9.166;2022-12-16T03:19:27;-1.40;99.90
14357;DHT22;7262;48.764;9.166;2022-12-16T03:21:57;-1.40;99.90
14357;DHT22;7262;48.764;9.166;2022-12-16T03:24:25;-1.40;99.90
14357;DHT22;7262;48.764;9.166;2022-12-16T03:26:55;-1.40;99.90
14357;DHT22;7262;48.764;9.166;2022-12-16T03:29:29;-1.40;99.90
14357;DHT22;7262;48.764;9.166;2022-12-16T03:32:02;-1.30;99.90
14357;DHT22;7262;48.764;9.166;2022-12-16T03:34:34;-1.30;99.90
14357;DHT22;7262;48.764;9.166;2022-12-16T03:37:03;-1.30;99.90
14357;DHT22;7262;48.764;9.166;2022-12-16T03:39:32;-1.30;99.90
14357;DHT22;7262;48.764;9.166;2022-12-16T03:42:00;-1.40;99.90
14357;DHT22;7262;48.764;9.166;2022-12-16T03:44:28;-1.40;99.90
14357;DHT22;7262;48.764;9.166;2022-12-16T03:46:55;-1.50;99.90
14357;DHT22;7262;48.764;9.166;2022-12-16T03:49:22;-1.40;99.90
14357;DHT22;7262;48.764;9.166;2022-12-16T03:51:52;-1.40;99.90
14357;DHT22;7262;48.764;9.166;2022-12-16T03:54:21;-1.30;99.90
14357;DHT22;7262;48.764;9.166;2022-12-16T03:56:47;-1.30;99.90
14357;DHT22;7262;48.764;9.166;2022-12-16T03:59:14;-1.30;99.90
14357;DHT22;7262;48.764;9.166;2022-12-16T04:01:41;-1.30;99.90
14357;DHT22;7262;48.764;9.166;2022-12-16T04:04:08;-1.20;99.90
14357;DHT22;7262;48.764;9.166;2022-12-16T04:06:35;-1.20;99.90
14357;DHT22;7262;48.764;9.166;2022-12-16T04:09:03;-1.30;99.90
14357;DHT22;7262;48.764;9.166;2022-12-16T04:11:30;-1.40;99.90
14357;DHT22;7262;48.764;9.166;2022-12-16T04:14:14;-1.40;99.90
14357;DHT22;7262;48.764;9.166;2022-12-16T04:16:58;-1.40;99.90
14357;DHT22;7262;48.764;9.166;2022-12-16T04:19:43;-1.40;99.90
14357;DHT22;7262;48.764;9.166;2022-12-16T04:22:29;-1.30;99.90
14357;DHT22;7262;48.764;9.166;2022-12-16T04:25:18;-1.40;99.90
14357;DHT22;7262;48.764;9.166;2022-12-16T04:27:46;-1.50;99.90
14357;DHT22;7262;48.764;9.166;2022-12-16T04:30:13;-1.50;99.90
14357;DHT22;7262;48.764;9.166;2022-12-16T04:32:46;-1.50;99.90
14357;DHT22;7262;48.764;9.166;2022-12-16T04:35:31;-1.50;99.90
14357;DHT22;7262;48.764;9.166;2022-12-16T04:38:15;-1.50;99.90
14357;DHT22;7262;48.764;9.166;2022-12-16T04:41:01;-1.50;99.90
14357;DHT22;7262;48.764;9.166;2022-12-16T04:43:45;-1.50;99.90
14357;DHT22;7262;48.764;9.166;2022-12-16T04:46:29;-1.50;99.90
14357;DHT22;7262;48.764;9.166;2022-12-16T04:49:14;-1.50;99.90
14357;DHT22;7262;48.764;9.166;2022-12-16T04:51:58;-1.50;99.90
14357;DHT22;7262;48.764;9.166;2022-12-16T04:54:42;-1.50;99.90
14357;DHT22;7262;48.764;9.166;2022-12-16T04:57:28;-1.50;99.90
14357;DHT22;7262;48.764;9.166;2022-12-16T05:00:13;-1.40;99.90
14357;DHT22;7262;48.764;9.166;2022-12-16T05:02:53;-1.50;99.90
14357;DHT22;7262;48.764;9.166;2022-12-16T05:05:37;-1.50;99.90
14357;DHT22;7262;48.764;9.166;2022-12-16T05:08:21;-1.50;99.90
14357;DHT22;7262;48.764;9.166;2022-12-16T05:11:06;-1.50;99.90
14357;DHT22;7262;48.764;9.166;2022-12-16T05:13:52;-1.30;99.90
14357;DHT22;7262;48.764;9.166;2022-12-16T05:16:36;-1.40;99.90
14357;DHT22;7262;48.764;9.166;2022-12-16T05:19:20;-1.50;99.90
14357;DHT22;7262;48.764;9.166;2022-12-16T05:22:04;-1.40;99.90
14357;DHT22;7262;48.764;9.166;2022-12-16T05:24:48;-1.40;99.90
14357;DHT22;7262;48.764;9.166;2022-12-16T05:27:33;-1.40;99.90
14357;DHT22;7262;48.764;9.166;2022-12-16T05:30:18;-1.40;99.90
14357;DHT22;7262;48.764;9.166;2022-12-16T05:33:17;-1.50;99.90
14357;DHT22;7262;48.764;9.166;2022-12-16T05:36:00;-1.40;99.90
14357;DHT22;7262;48.764;9.166;2022-12-16T05:38:45;-1.50;99.90
14357;DHT22;7262;48.764;9.166;2022-12-16T05:41:29;-1.40;99.90
14357;DHT22;7262;48.764;9.166;2022-12-16T05:44:13;-1.40;99.90
14357;DHT22;7262;48.764;9.166;2022-12-16T05:46:58;-1.40;99.90
14357;DHT22;7262;48.764;9.166;2022-12-16T05:49:43;-1.40;99.90
14357;DHT22;7262;48.764;9.166;2022-12-16T05:52:27;-1.40;99.90
14357;DHT22;7262;48.764;9.166;2022-12-16T05:55:11;-1.30;99.90
14357;DHT22;7262;48.764;9.166;2022-12-16T05:57:56;-1.30;99.90
14357;DHT22;7262;48.764;9.166;2022-12-16T06:00:40;-1.40;99.90
14357;DHT22;7262;48.764;9.166;2022-12-16T06:03:25;-1.40;99.90
14357;DHT22;7262;48.764;9.166;2022-12-16T06:06:18;-1.50;99.90
14357;DHT22;7262;48.764;9.166;2022-12-16T06:09:02;-1.40;99.90
14357;DHT22;7262;48.764;9.166;2022-12-16T06:11:46;-1.40;99.90
14357;DHT22;7262;48.764;9.166;2022-12-16T06:14:32;-1.50;99.90
14357;DHT22;7262;48.764;9.166;2022-12-16T06:17:17;-1.40;99.90
14357;DHT22;7262;48.764;9.166;2022-12-16T06:20:02;-1.40;99.90
14357;DHT22;7262;48.764;9.166;2022-12-16T06:22:49;-1.40;99.90
14357;DHT22;7262;48.764;9.166;2022-12-16T06:25:33;-1.30;99.90
14357;DHT22;7262;48.764;9.166;2022-12-16T06:28:18;-1.40;99.90
14357;DHT22;7262;48.764;9.166;2022-12-16T06:31:02;-1.40;99.90
14357;DHT22;7262;48.764;9.166;2022-12-16T06:33:46;-1.40;99.90
14357;DHT22;7262;48.764;9.166;2022-12-16T06:36:32;-1.40;99.90
14357;DHT22;7262;48.764;9.166;2022-12-16T06:39:16;-1.40;99.90
14357;DHT22;7262;48.764;9.166;2022-12-16T06:42:00;-1.40;99.90
14357;DHT22;7262;48.764;9.166;2022-12-16T06:44:44;-1.30;99.90
14357;DHT22;7262;48.764;9.166;2022-12-16T06:47:41;-1.30;99.90
14357;DHT22;7262;48.764;9.166;2022-12-16T06:50:26;-1.40;99.90
14357;DHT22;7262;48.764;9.166;2022-12-16T06:53:12;-1.20;99.90
14357;DHT22;7262;48.764;9.166;2022-12-16T06:55:56;-1.10;99.90
14357;DHT22;7262;48.764;9.166;2022-12-16T06:58:41;-1.20;99.90
14357;DHT22;7262;48.764;9.166;2022-12-16T07:01:25;-1.10;99.90
14357;DHT22;7262;48.764;9.166;2022-12-16T07:04:09;-1.10;99.90
14357;DHT22;7262;48.764;9.166;2022-12-16T07:06:53;-1.10;99.90
14357;DHT22;7262;48.764;9.166;2022-12-16T07:09:39;-1.10;99.90
14357;DHT22;7262;48.764;9.166;2022-12-16T07:12:23;-1.10;99.90
14357;DHT22;7262;48.764;9.166;2022-12-16T07:15:08;-1.10;99.90
14357;DHT22;7262;48.764;9.166;2022-12-16T07:17:53;-1.10;99.90
14357;DHT22;7262;48.764;9.166;2022-12-16T07:20:37;-1.00;99.90
14357;DHT22;7262;48.764;9.166;2022-12-16T07:23:21;-1.00;99.90
14357;DHT22;7262;48.764;9.166;2022-12-16T07:26:07;-1.10;99.90
14357;DHT22;7262;48.764;9.166;2022-12-16T07:28:51;-1.10;99.90
14357;DHT22;7262;48.764;9.166;2022-12-16T07:31:35;-1.00;99.90
14357;DHT22;7262;48.764;9.166;2022-12-16T07:34:20;-1.10;99.90
14357;DHT22;7262;48.764;9.166;2022-12-16T07:37:04;-1.00;99.90
14357;DHT22;7262;48.764;9.166;2022-12-16T07:39:48;-1.10;99.90
14357;DHT22;7262;48.764;9.166;2022-12-16T07:42:34;-1.00;99.90
14357;DHT22;7262;48.764;9.166;2022-12-16T07:45:19;-1.00;99.90
14357;DHT22;7262;48.764;9.166;2022-12-16T07:48:04;-1.00;99.90
14357;DHT22;7262;48.764;9.166;2022-12-16T07:50:48;-0.90;99.90
14357;DHT22;7262;48.764;9.166;2022-12-16T07:53:40;-0.90;99.90
14357;DHT22;7262;48.764;9.166;2022-12-16T07:56:24;-0.90;99.90
14357;DHT22;7262;48.764;9.166;2022-12-16T07:59:10;-0.80;99.90
14357;DHT22;7262;48.764;9.166;2022-12-16T08:01:54;-0.90;99.90
14357;DHT22;7262;48.764;9.166;2022-12-16T08:04:38;-0.80;99.90
14357;DHT22;7262;48.764;9.166;2022-12-16T08:07:23;-0.80;99.90
14357;DHT22;7262;48.764;9.166;2022-12-16T08:10:08;-0.80;99.90
14357;DHT22;7262;48.764;9.166;2022-12-16T08:12:57;-0.70;99.90
14357;DHT22;7262;48.764;9.166;2022-12-16T08:15:43;-0.60;99.90
14357;DHT22;7262;48.764;9.166;2022-12-16T08:18:27;-0.60;99.90
14357;DHT22;7262;48.764;9.166;2022-12-16T08:21:11;-0.40;99.90
14357;DHT22;7262;48.764;9.166;2022-12-16T08:23:56;-0.40;99.90
14357;DHT22;7262;48.764;9.166;2022-12-16T08:26:40;-0.20;99.90
14357;DHT22;7262;48.764;9.166;2022-12-16T08:29:24;-0.20;99.90
14357;DHT22;7262;48.764;9.166;2022-12-16T08:32:10;-0.10;99.90
14357;DHT22;7262;48.764;9.166;2022-12-16T08:34:54;-0.10;99.90
14357;DHT22;7262;48.764;9.166;2022-12-16T08:37:38;0.00;99.90
14357;DHT22;7262;48.764;9.166;2022-12-16T08:40:22;-0.10;99.90
14357;DHT22;7262;48.764;9.166;2022-12-16T08:43:07;-0.10;99.90
14357;DHT22;7262;48.764;9.166;2022-12-16T08:45:51;-0.10;99.90
14357;DHT22;7262;48.764;9.166;2022-12-16T08:48:37;-0.20;99.90
14357;DHT22;7262;48.764;9.166;2022-12-16T08:51:22;-0.30;99.90
14357;DHT22;7262;48.764;9.166;2022-12-16T08:54:06;-0.40;99.90
14357;DHT22;7262;48.764;9.166;2022-12-16T08:56:51;-0.30;99.90
14357;DHT22;7262;48.764;9.166;2022-12-16T08:59:35;-0.40;99.90
14357;DHT22;7262;48.764;9.166;2022-12-16T09:02:19;-0.40;99.90
14357;DHT22;7262;48.764;9.166;2022-12-16T09:05:05;-0.40;99.90
14357;DHT22;7262;48.764;9.166;2022-12-16T09:07:50;-0.40;99.90
14357;DHT22;7262;48.764;9.166;2022-12-16T09:10:34;-0.50;99.90
14357;DHT22;7262;48.764;9.166;2022-12-16T09:13:19;-0.30;99.90
14357;DHT22;7262;48.764;9.166;2022-12-16T09:16:03;-0.40;99.90
14357;DHT22;7262;48.764;9.166;2022-12-16T09:18:47;-0.20;99.90
14357;DHT22;7262;48.764;9.166;2022-12-16T09:21:33;-0.10;99.90
14357;DHT22;7262;48.764;9.166;2022-12-16T09:24:17;0.00;99.90
14357;DHT22;7262;48.764;9.166;2022-12-16T09:27:02;-0.30;99.90
14357;DHT22;7262;48.764;9.166;2022-12-16T09:29:46;-0.10;99.90
14357;DHT22;7262;48.764;9.166;2022-12-16T09:32:30;0.10;99.90
14357;DHT22;7262;48.764;9.166;2022-12-16T09:35:15;0.10;99.90
14357;DHT22;7262;48.764;9.166;2022-12-16T09:38:01;0.10;99.90
14357;DHT22;7262;48.764;9.166;2022-12-16T09:40:45;0.10;99.90
14357;DHT22;7262;48.764;9.166;2022-12-16T09:43:36;0.00;99.90
14357;DHT22;7262;48.764;9.166;2022-12-16T09:46:26;0.10;99.90
14357;DHT22;7262;48.764;9.166;2022-12-16T09:49:25;0.20;99.90
14357;DHT22;7262;48.764;9.166;2022-12-16T09:52:13;0.00;99.90
14357;DHT22;7262;48.764;9.166;2022-12-16T09:54:59;0.00;99.90
14357;DHT22;7262;48.764;9.166;2022-12-16T09:57:44;0.00;99.90
14357;DHT22;7262;48.764;9.166;2022-12-16T10:00:28;-0.10;99.90
14357;DHT22;7262;48.764;9.166;2022-12-16T10:03:14;0.30;99.90
14357;DHT22;7262;48.764;9.166;2022-12-16T10:06:02;0.20;99.90
14357;DHT22;7262;48.764;9.166;2022-12-16T10:08:49;0.10;99.90
14357;DHT22;7262;48.764;9.166;2022-12-16T10:11:41;0.10;99.90
14357;DHT22;7262;48.764;9.166;2022-12-16T10:14:30;0.20;99.90
14357;DHT22;7262;48.764;9.166;2022-12-16T10:17:19;0.40;99.90
14357;DHT22;7262;48.764;9.166;2022-12-16T10:20:06;0.30;99.90
14357;DHT22;7262;48.764;9.166;2022-12-16T10:22:56;0.40;99.90
14357;DHT22;7262;48.764;9.166;2022-12-16T10:25:45;0.10;99.90
14357;DHT22;7262;48.764;9.166;2022-12-16T10:28:37;0.00;99.90
14357;DHT22;7262;48.764;9.166;2022-12-16T10:31:25;0.00;99.90
14357;DHT22;7262;48.764;9.166;2022-12-16T10:34:10;-0.20;99.90
14357;DHT22;7262;48.764;9.166;2022-12-16T10:36:57;0.00;99.90
14357;DHT22;7262;48.764;9.166;2022-12-16T10:39:41;0.10;99.90
14357;DHT22;7262;48.764;9.166;2022-12-16T10:42:30;-0.30;99.90
14357;DHT22;7262;48.764;9.166;2022-12-16T10:45:20;-0.10;99.90
14357;DHT22;7262;48.764;9.166;2022-12-16T10:48:06;0.00;99.90
14357;DHT22;7262;48.764;9.166;2022-12-16T10:50:51;0.10;99.90
14357;DHT22;7262;48.764;9.166;2022-12-16T10:53:35;0.20;99.90
14357;DHT22;7262;48.764;9.166;2022-12-16T10:56:24;0.40;99.90
14357;DHT22;7262;48.764;9.166;2022-12-16T10:59:15;0.40;99.90
14357;DHT22;7262;48.764;9.166;2022-12-16T11:02:02;0.30;99.90
14357;DHT22;7262;48.764;9.166;2022-12-16T11:04:49;0.30;99.90
14357;DHT22;7262;48.764;9.166;2022-12-16T11:07:49;0.30;99.90
14357;DHT22;7262;48.764;9.166;2022-12-16T11:10:35;0.10;99.90
14357;DHT22;7262;48.764;9.166;2022-12-16T11:13:23;-0.10;99.90
14357;DHT22;7262;48.764;9.166;2022-12-16T11:16:09;-0.10;99.90
14357;DHT22;7262;48.764;9.166;2022-12-16T11:18:55;0.00;99.90
14357;DHT22;7262;48.764;9.166;2022-12-16T11:21:39;0.40;99.90
14357;DHT22;7262;48.764;9.166;2022-12-16T11:24:23;0.50;99.90
14357;DHT22;7262;48.764;9.166;2022-12-16T11:27:12;0.70;99.90
14357;DHT22;7262;48.764;9.166;2022-12-16T11:29:58;0.70;99.90
14357;DHT22;7262;48.764;9.166;2022-12-16T11:32:43;0.60;99.90
14357;DHT22;7262;48.764;9.166;2022-12-16T11:35:31;0.60;99.90
14357;DHT22;7262;48.764;9.166;2022-12-16T11:38:20;0.90;99.90
14357;DHT22;7262;48.764;9.166;2022-12-16T11:41:06;1.00;99.90
14357;DHT22;7262;48.764;9.166;2022-12-16T11:43:50;1.10;99.90
14357;DHT22;7262;48.764;9.166;2022-12-16T11:46:35;1.10;99.90
14357;DHT22;7262;48.764;9.166;2022-12-16T11:49:21;1.20;99.90
14357;DHT22;7262;48.764;9.166;2022-12-16T11:52:09;1.30;99.90
14357;DHT22;7262;48.764;9.166;2022-12-16T11:54:56;1.40;99.90
14357;DHT22;7262;48.764;9.166;2022-12-16T11:57:44;1.60;99.90
14357;DHT22;7262;48.764;9.166;2022-12-16T12:00:31;1.80;99.90
14357;DHT22;7262;48.764;9.166;2022-12-16T12:03:17;1.60;99.90
14357;DHT22;7262;48.764;9.166;2022-12-16T12:06:06;1.20;99.90
14357;DHT22;7262;48.764;9.166;2022-12-16T12:09:08;1.10;99.90
14357;DHT22;7262;48.764;9.166;2022-12-16T12:12:12;1.10;99.90
14357;DHT22;7262;48.764;9.166;2022-12-16T12:14:59;1.30;99.90
14357;DHT22;7262;48.764;9.166;2022-12-16T12:17:50;1.60;99.90
14357;DHT22;7262;48.764;9.166;2022-12-16T12:20:49;1.80;99.90
14357;DHT22;7262;48.764;9.166;2022-12-16T12:23:39;1.80;99.90
14357;DHT22;7262;48.764;9.166;2022-12-16T12:26:28;2.00;99.90
14357;DHT22;7262;48.764;9.166;2022-12-16T12:29:15;2.10;99.90
14357;DHT22;7262;48.764;9.166;2022-12-16T12:32:02;1.90;99.90
14357;DHT22;7262;48.764;9.166;2022-12-16T12:34:52;1.80;99.90
14357;DHT22;7262;48.764;9.166;2022-12-16T12:37:43;1.90;99.90
14357;DHT22;7262;48.764;9.166;2022-12-16T12:40:34;1.60;99.90
14357;DHT22;7262;48.764;9.166;2022-12-16T12:43:24;1.30;99.90
14357;DHT22;7262;48.764;9.166;2022-12-16T12:46:11;1.30;99.90
14357;DHT22;7262;48.764;9.166;2022-12-16T12:48:59;1.50;99.90
14357;DHT22;7262;48.764;9.166;2022-12-16T12:51:49;1.30;99.90
14357;DHT22;7262;48.764;9.166;2022-12-16T12:54:39;1.30;99.90
14357;DHT22;7262;48.764;9.166;2022-12-16T12:57:27;1.30;99.90
14357;DHT22;7262;48.764;9.166;2022-12-16T13:00:15;1.30;99.90
14357;DHT22;7262;48.764;9.166;2022-12-16T13:03:00;1.10;99.90
14357;DHT22;7262;48.764;9.166;2022-12-16T13:05:46;0.90;99.90
14357;DHT22;7262;48.764;9.166;2022-12-16T13:08:41;0.60;99.90
14357;DHT22;7262;48.764;9.166;2022-12-16T13:11:25;0.50;99.90
14357;DHT22;7262;48.764;9.166;2022-12-16T13:17:14;0.30;99.90
14357;DHT22;7262;48.764;9.166;2022-12-16T13:19:59;0.50;99.90
14357;DHT22;7262;48.764;9.166;2022-12-16T13:22:44;0.40;99.90
14357;DHT22;7262;48.764;9.166;2022-12-16T13:25:36;0.40;99.90
14357;DHT22;7262;48.764;9.166;2022-12-16T13:28:21;0.30;99.90
14357;DHT22;7262;48.764;9.166;2022-12-16T13:31:06;0.40;99.90
14357;DHT22;7262;48.764;9.166;2022-12-16T13:33:52;0.50;99.90
14357;DHT22;7262;48.764;9.166;2022-12-16T13:36:37;0.40;99.90
14357;DHT22;7262;48.764;9.166;2022-12-16T13:39:24;0.40;99.90
14357;DHT22;7262;48.764;9.166;2022-12-16T13:45:14;0.50;99.90
14357;DHT22;7262;48.764;9.166;2022-12-16T13:48:01;0.30;99.90
14357;DHT22;7262;48.764;9.166;2022-12-16T13:50:47;0.20;99.90
14357;DHT22;7262;48.764;9.166;2022-12-16T13:53:32;0.30;99.90
14357;DHT22;7262;48.764;9.166;2022-12-16T13:56:19;0.30;99.90
14357;DHT22;7262;48.764;9.166;2022-12-16T13:59:10;0.20;99.90
14357;DHT22;7262;48.764;9.166;2022-12-16T14:02:00;0.10;99.90
14357;DHT22;7262;48.764;9.166;2022-12-16T14:04:46;0.30;99.90
14357;DHT22;7262;48.764;9.166;2022-12-16T14:07:32;0.20;99.90
14357;DHT22;7262;48.764;9.166;2022-12-16T14:10:24;0.30;99.90
14357;DHT22;7262;48.764;9.166;2022-12-16T14:13:09;0.30;99.90
14357;DHT22;7262;48.764;9.166;2022-12-16T14:16:00;0.30;99.90
14357;DHT22;7262;48.764;9.166;2022-12-16T14:18:52;0.10;99.90
14357;DHT22;7262;48.764;9.166;2022-12-16T14:21:41;0.10;99.90
14357;DHT22;7262;48.764;9.166;2022-12-16T14:24:30;0.00;99.90
14357;DHT22;7262;48.764;9.166;2022-12-16T14:27:15;-0.10;99.90
14357;DHT22;7262;48.764;9.166;2022-12-16T14:30:00;-0.30;99.90
14357;DHT22;7262;48.764;9.166;2022-12-16T14:32:46;-0.40;99.90
14357;DHT22;7262;48.764;9.166;2022-12-16T14:35:31;-0.40;99.90
14357;DHT22;7262;48.764;9.166;2022-12-16T14:38:22;-0.30;99.90
14357;DHT22;7262;48.764;9.166;2022-12-16T14:41:11;-0.20;99.90
14357;DHT22;7262;48.764;9.166;2022-12-16T14:43:56;-0.30;99.90
14357;DHT22;7262;48.764;9.166;2022-12-16T14:46:40;-0.40;99.90
14357;DHT22;7262;48.764;9.166;2022-12-16T14:49:25;-0.30;99.90
14357;DHT22;7262;48.764;9.166;2022-12-16T14:52:14;-0.30;99.90
14357;DHT22;7262;48.764;9.166;2022-12-16T14:54:59;-0.40;99.90
14357;DHT22;7262;48.764;9.166;2022-12-16T14:57:45;-0.30;99.90
14357;DHT22;7262;48.764;9.166;2022-12-16T15:00:44;-0.30;99.90
14357;DHT22;7262;48.764;9.166;2022-12-16T15:03:30;-0.40;99.90
14357;DHT22;7262;48.764;9.166;2022-12-16T15:06:17;-0.50;99.90
14357;DHT22;7262;48.764;9.166;2022-12-16T15:09:04;-0.50;99.90
14357;DHT22;7262;48.764;9.166;2022-12-16T15:11:49;-0.60;99.90
14357;DHT22;7262;48.764;9.166;2022-12-16T15:14:36;-0.50;99.90
14357;DHT22;7262;48.764;9.166;2022-12-16T15:17:24;-0.60;99.90
14357;DHT22;7262;48.764;9.166;2022-12-16T15:20:14;-0.60;99.90
14357;DHT22;7262;48.764;9.166;2022-12-16T15:23:00;-0.40;99.90
14357;DHT22;7262;48.764;9.166;2022-12-16T15:25:57;-0.70;99.90
14357;DHT22;7262;48.764;9.166;2022-12-16T15:28:41;-0.60;99.90
14357;DHT22;7262;48.764;9.166;2022-12-16T15:31:29;-0.60;99.90
14357;DHT22;7262;48.764;9.166;2022-12-16T15:34:25;-0.70;99.90
14357;DHT22;7262;48.764;9.166;2022-12-16T15:37:14;-0.70;99.90
14357;DHT22;7262;48.764;9.166;2022-12-16T15:39:59;-0.70;99.90
14357;DHT22;7262;48.764;9.166;2022-12-16T15:42:48;-0.80;99.90
14357;DHT22;7262;48.764;9.166;2022-12-16T15:45:32;-0.80;99.90
14357;DHT22;7262;48.764;9.166;2022-12-16T15:48:18;-0.80;99.90
14357;DHT22;7262;48.764;9.166;2022-12-16T15:51:03;-0.70;99.90
14357;DHT22;7262;48.764;9.166;2022-12-16T15:53:59;-0.70;99.90
14357;DHT22;7262;48.764;9.166;2022-12-16T15:56:44;-0.70;99.90
14357;DHT22;7262;48.764;9.166;2022-12-16T15:59:29;-0.70;99.90
14357;DHT22;7262;48.764;9.166;2022-12-16T16:02:15;-0.70;99.90
14357;DHT22;7262;48.764;9.166;2022-12-16T16:05:06;-0.70;99.90
14357;DHT22;7262;48.764;9.166;2022-12-16T16:08:00;-0.70;99.90
14357;DHT22;7262;48.764;9.166;2022-12-16T16:10:44;-0.70;99.90
14357;DHT22;7262;48.764;9.166;2022-12-16T16:13:28;-0.70;99.90
14357;DHT22;7262;48.764;9.166;2022-12-16T16:16:13;-0.70;99.90
14357;DHT22;7262;48.764;9.166;2022-12-16T16:18:57;-0.70;99.90
14357;DHT22;7262;48.764;9.166;2022-12-16T16:21:43;-0.70;99.90
14357;DHT22;7262;48.764;9.166;2022-12-16T16:24:28;-0.70;99.90
14357;DHT22;7262;48.764;9.166;2022-12-16T16:27:13;-0.70;99.90
14357;DHT22;7262;48.764;9.166;2022-12-16T16:29:58;-0.50;99.90
14357;DHT22;7262;48.764;9.166;2022-12-16T16:32:42;-0.70;99.90
14357;DHT22;7262;48.764;9.166;2022-12-16T16:35:27;-0.80;99.90
14357;DHT22;7262;48.764;9.166;2022-12-16T16:38:13;-0.80;99.90
14357;DHT22;7262;48.764;9.166;2022-12-16T16:40:57;-0.80;99.90
14357;DHT22;7262;48.764;9.166;2022-12-16T16:43:42;-0.80;99.90
14357;DHT22;7262;48.764;9.166;2022-12-16T16:46:29;-0.80;99.90
14357;DHT22;7262;48.764;9.166;2022-12-16T16:49:18;-0.80;99.90
14357;DHT22;7262;48.764;9.166;2022-12-16T16:52:02;-0.80;99.90
14357;DHT22;7262;48.764;9.166;2022-12-16T16:54:48;-0.90;99.90
14357;DHT22;7262;48.764;9.166;2022-12-16T16:57:33;-0.90;99.90
14357;DHT22;7262;48.764;9.166;2022-12-16T17:00:20;-1.00;99.90
14357;DHT22;7262;48.764;9.166;2022-12-16T17:03:04;-0.90;99.90
14357;DHT22;7262;48.764;9.166;2022-12-16T17:05:48;-1.00;99.90
14357;DHT22;7262;48.764;9.166;2022-12-16T17:08:32;-0.80;99.90
14357;DHT22;7262;48.764;9.166;2022-12-16T17:11:18;-0.90;99.90
14357;DHT22;7262;48.764;9.166;2022-12-16T17:14:03;-0.80;99.90
14357;DHT22;7262;48.764;9.166;2022-12-16T17:16:47;-0.90;99.90
14357;DHT22;7262;48.764;9.166;2022-12-16T17:19:31;-0.90;99.90
14357;DHT22;7262;48.764;9.166;2022-12-16T17:22:15;-0.90;99.90
14357;DHT22;7262;48.764;9.166;2022-12-16T17:25:00;-1.00;99.90
14357;DHT22;7262;48.764;9.166;2022-12-16T17:27:45;-1.00;99.90
14357;DHT22;7262;48.764;9.166;2022-12-16T17:30:30;-1.00;99.90
14357;DHT22;7262;48.764;9.166;2022-12-16T17:33:14;-0.90;99.90
14357;DHT22;7262;48.764;9.166;2022-12-16T17:35:58;-0.80;99.90
14357;DHT22;7262;48.764;9.166;2022-12-16T17:38:42;-1.00;99.90
14357;DHT22;7262;48.764;9.166;2022-12-16T17:41:27;-0.90;99.90
14357;DHT22;7262;48.764;9.166;2022-12-16T17:44:13;-1.00;99.90
14357;DHT22;7262;48.764;9.166;2022-12-16T17:46:57;-0.90;99.90
14357;DHT22;7262;48.764;9.166;2022-12-16T17:49:41;-1.00;99.90
14357;DHT22;7262;48.764;9.166;2022-12-16T17:52:28;-1.10;99.90
14357;DHT22;7262;48.764;9.166;2022-12-16T17:55:13;-1.00;99.90
14357;DHT22;7262;48.764;9.166;2022-12-16T17:58:02;-1.10;99.90
14357;DHT22;7262;48.764;9.166;2022-12-16T18:00:48;-0.90;99.90
14357;DHT22;7262;48.764;9.166;2022-12-16T18:03:32;-1.00;99.90
14357;DHT22;7262;48.764;9.166;2022-12-16T18:06:16;-1.00;99.90
14357;DHT22;7262;48.764;9.166;2022-12-16T18:08:59;-1.00;99.90
14357;DHT22;7262;48.764;9.166;2022-12-16T18:11:43;-1.00;99.90
14357;DHT22;7262;48.764;9.166;2022-12-16T18:14:27;-1.00;99.90
14357;DHT22;7262;48.764;9.166;2022-12-16T18:17:14;-1.00;99.90
14357;DHT22;7262;48.764;9.166;2022-12-16T18:20:01;-0.90;99.90
14357;DHT22;7262;48.764;9.166;2022-12-16T18:22:45;-0.90;99.90
14357;DHT22;7262;48.764;9.166;2022-12-16T18:25:29;-0.90;99.90
14357;DHT22;7262;48.764;9.166;2022-12-16T18:28:13;-0.90;99.90
14357;DHT22;7262;48.764;9.166;2022-12-16T18:30:57;-0.90;99.90
14357;DHT22;7262;48.764;9.166;2022-12-16T18:33:43;-1.00;99.90
14357;DHT22;7262;48.764;9.166;2022-12-16T18:36:28;-1.00;99.90
14357;DHT22;7262;48.764;9.166;2022-12-16T18:39:12;-0.80;99.90
14357;DHT22;7262;48.764;9.166;2022-12-16T18:41:56;-0.90;99.90
14357;DHT22;7262;48.764;9.166;2022-12-16T18:44:40;-0.90;99.90
14357;DHT22;7262;48.764;9.166;2022-12-16T18:47:25;-0.90;99.90
14357;DHT22;7262;48.764;9.166;2022-12-16T18:50:12;-0.80;99.90
14357;DHT22;7262;48.764;9.166;2022-12-16T18:52:56;-0.80;99.90
14357;DHT22;7262;48.764;9.166;2022-12-16T18:55:40;-0.80;99.90
14357;DHT22;7262;48.764;9.166;2022-12-16T18:58:24;-0.80;99.90
14357;DHT22;7262;48.764;9.166;2022-12-16T19:01:09;-0.90;99.90
14357;DHT22;7262;48.764;9.166;2022-12-16T19:03:54;-0.80;99.90
14357;DHT22;7262;48.764;9.166;2022-12-16T19:06:40;-0.80;99.90
14357;DHT22;7262;48.764;9.166;2022-12-16T19:09:20;-1.00;99.90
14357;DHT22;7262;48.764;9.166;2022-12-16T19:12:05;-1.10;99.90
14357;DHT22;7262;48.764;9.166;2022-12-16T19:14:49;-1.00;99.90
14357;DHT22;7262;48.764;9.166;2022-12-16T19:17:33;-1.10;99.90
14357;DHT22;7262;48.764;9.166;2022-12-16T19:20:17;-1.00;99.90
14357;DHT22;7262;48.764;9.166;2022-12-16T19:23:03;-1.00;99.90
14357;DHT22;7262;48.764;9.166;2022-12-16T19:25:47;-1.00;99.90
14357;DHT22;7262;48.764;9.166;2022-12-16T19:28:31;-1.00;99.90
14357;DHT22;7262;48.764;9.166;2022-12-16T19:31:15;-1.00;99.90
14357;DHT22;7262;48.764;9.166;2022-12-16T19:33:59;-1.00;99.90
14357;DHT22;7262;48.764;9.166;2022-12-16T19:36:44;-0.90;99.90
14357;DHT22;7262;48.764;9.166;2022-12-16T19:39:38;-1.10;99.90
14357;DHT22;7262;48.764;9.166;2022-12-16T19:42:23;-1.10;99.90
14357;DHT22;7262;48.764;9.166;2022-12-16T19:45:07;-1.10;99.90
14357;DHT22;7262;48.764;9.166;2022-12-16T19:47:58;-1.10;99.90